Pagrindinis puslapis
METAR-TAF:

METAR-TAF

Oro uostai :

Malmė, Švedija

platuma: 55-33N, ilguma: 013-22E, Aukštis: 106 m

Dabartinis oras

Ataskaita buvo paskelbta 35 minutes, ne 04:20 UTC
Vėjas 3 kt iš Pietvakarių
Temperatūra 12°C
Drėgmė 100%
Slėgis 1018 hPa
Matomumas 10 km arba daugiau
nėra debesų žemiau 1500 m ir nėra kamuolinių lietaus debesų

METAR: ESMS 200420Z 22003KT CAVOK 12/12 Q1018

Laikas: 06:55 (04:55 UTC)

Prognozė

Ataskaita buvo paskelbta 5 valandos ir 47 minutes, ne 23:08 UTC
Prognozė galioja nuo 20 metu 00 UTC su 20 metu 24 UTC
Vėjas 10 kt iš Pietvakarių
Matomumas 10 km arba daugiau
Išsisklaidę debesys ne aukštis 3000 ft
Tikimybė 40%
nuo 20 metu 00 UTC su 20 metu 06 UTC
Matomumas: 3000 m
Sekli rūkas, rūkana
Laikinai
nuo 20 metu 09 UTC su 20 metu 15 UTC
Mažai debesys ne aukštis 2000 ft, Liūtiniai kamuoliniai debesys.

TAF: ESMS 192308Z 2000/2024 23010KT 9999 SCT030 PROB40 2000/2006 3000 MIFG BR TEMPO 2009/2015 FEW020CB

Orai ataskaitas ir orų prognozės (METAR, TAF).

turimą stotys yra geltonos ir raudonos taškus žemėlapyje.

Perkelti pele per norėdami pamatyti stoties vardą.

Tada spustelėkite, norėdami matyti oro stebėjimo ir prognozės.

Norėdami pakeisti žemėlapį: spustelėkite ant žalios mygtukų su juodo kryžiaus žemyn,; žalią mygtuką su brūkšneliu, jei norite nutolinti; arba žalių rodyklių gretimoms žemėlapius.


METAR-TAF: